2MeteoStar Phoenix Sky Harbor International Airport FORECAST
Forecast For: Phoenix, Arizona
Partly Cloudy
 
Currently: Phoenix Sky Harbor International Airport 9:51 GMT
Weather:Partly Cloudy Humidity:16%
Temperature:27 ° C Wind:CALM
Dew Point:0 ° C Pressure:1008 mb
Feels Like:26 ° C Visibility:16 km
Print Legend
24 Hour Weather Trace
Regional Observations
Daily Climate Plot
Monthly Climate Plot

Regional Radar Image
National Radar Image
Regional Satellite Image
National Satellite Image
Short Range Forecast Trace
Long Range Forecast Trace
NWS Forecast Discussion
16 Day Forecast
Radar For: Phoenix,AZ


METAR:KPHX 230951Z 00000KT 10SM SCT250 27/00 A2981 RMK AO2 SLP075 T02720000 =
TAF:

TAFPHX
TAF AMD
KPHX 230838Z 2309/2406 25004KT P6SM FEW250
FM231000 09006KT P6SM FEW220
FM232000 28007KT P6SM SKC =

NWS Forecast for:
Greater Phoenix Area


Visit the MeteoStar Home Page